sensor_id;sensor_type;location;lat;lon;timestamp;temperature;humidity
71994;DHT22;59861;50.268;8.648;2022-12-07T00:01:14;16.00;56.60
71994;DHT22;59861;50.268;8.648;2022-12-07T00:03:38;16.00;56.60
71994;DHT22;59861;50.268;8.648;2022-12-07T00:06:06;16.00;56.70
71994;DHT22;59861;50.268;8.648;2022-12-07T00:08:33;16.00;56.70
71994;DHT22;59861;50.268;8.648;2022-12-07T00:11:06;16.00;56.80
71994;DHT22;59861;50.268;8.648;2022-12-07T00:13:29;16.00;56.80
71994;DHT22;59861;50.268;8.648;2022-12-07T00:15:59;16.00;56.90
71994;DHT22;59861;50.268;8.648;2022-12-07T00:18:24;16.10;56.90
71994;DHT22;59861;50.268;8.648;2022-12-07T00:20:51;16.00;56.90
71994;DHT22;59861;50.268;8.648;2022-12-07T00:23:18;16.00;56.80
71994;DHT22;59861;50.268;8.648;2022-12-07T00:25:45;16.10;56.80
71994;DHT22;59861;50.268;8.648;2022-12-07T00:28:13;16.10;56.90
71994;DHT22;59861;50.268;8.648;2022-12-07T00:30:40;16.10;57.00
71994;DHT22;59861;50.268;8.648;2022-12-07T00:33:07;16.10;56.70
71994;DHT22;59861;50.268;8.648;2022-12-07T00:35:34;16.10;56.40
71994;DHT22;59861;50.268;8.648;2022-12-07T00:38:00;16.10;56.70
71994;DHT22;59861;50.268;8.648;2022-12-07T00:40:27;16.20;57.10
71994;DHT22;59861;50.268;8.648;2022-12-07T00:42:54;16.10;56.70
71994;DHT22;59861;50.268;8.648;2022-12-07T00:45:21;16.20;56.50
71994;DHT22;59861;50.268;8.648;2022-12-07T00:47:48;16.10;56.50
71994;DHT22;59861;50.268;8.648;2022-12-07T00:50:14;16.10;57.10
71994;DHT22;59861;50.268;8.648;2022-12-07T00:52:41;16.10;57.10
71994;DHT22;59861;50.268;8.648;2022-12-07T00:55:08;16.20;56.60
71994;DHT22;59861;50.268;8.648;2022-12-07T00:57:35;16.20;56.50
71994;DHT22;59861;50.268;8.648;2022-12-07T01:00:02;16.20;56.40
71994;DHT22;59861;50.268;8.648;2022-12-07T01:02:29;16.20;56.40
71994;DHT22;59861;50.268;8.648;2022-12-07T01:04:56;16.20;56.30
71994;DHT22;59861;50.268;8.648;2022-12-07T01:07:22;16.10;56.30
71994;DHT22;59861;50.268;8.648;2022-12-07T01:09:49;16.20;56.30
71994;DHT22;59861;50.268;8.648;2022-12-07T01:12:16;16.20;56.30
71994;DHT22;59861;50.268;8.648;2022-12-07T01:14:43;16.20;56.30
71994;DHT22;59861;50.268;8.648;2022-12-07T01:17:09;16.10;56.30
71994;DHT22;59861;50.268;8.648;2022-12-07T01:19:36;16.10;56.20
71994;DHT22;59861;50.268;8.648;2022-12-07T01:22:03;16.10;56.20
71994;DHT22;59861;50.268;8.648;2022-12-07T01:24:30;16.10;56.20
71994;DHT22;59861;50.268;8.648;2022-12-07T01:26:57;16.10;56.10
71994;DHT22;59861;50.268;8.648;2022-12-07T01:29:23;16.10;56.20
71994;DHT22;59861;50.268;8.648;2022-12-07T01:31:50;16.10;56.30
71994;DHT22;59861;50.268;8.648;2022-12-07T01:34:17;16.10;56.30
71994;DHT22;59861;50.268;8.648;2022-12-07T01:36:44;16.10;56.30
71994;DHT22;59861;50.268;8.648;2022-12-07T01:39:11;16.10;56.40
71994;DHT22;59861;50.268;8.648;2022-12-07T01:41:38;16.10;56.40
71994;DHT22;59861;50.268;8.648;2022-12-07T01:44:13;16.10;56.30
71994;DHT22;59861;50.268;8.648;2022-12-07T01:46:41;16.10;56.30
71994;DHT22;59861;50.268;8.648;2022-12-07T01:49:13;16.10;56.40
71994;DHT22;59861;50.268;8.648;2022-12-07T01:51:36;16.00;56.30
71994;DHT22;59861;50.268;8.648;2022-12-07T01:54:04;16.00;56.30
71994;DHT22;59861;50.268;8.648;2022-12-07T01:56:31;16.00;56.30
71994;DHT22;59861;50.268;8.648;2022-12-07T01:58:58;16.00;56.40
71994;DHT22;59861;50.268;8.648;2022-12-07T02:01:26;16.10;56.40
71994;DHT22;59861;50.268;8.648;2022-12-07T02:03:53;16.10;56.40
71994;DHT22;59861;50.268;8.648;2022-12-07T02:06:20;16.10;56.40
71994;DHT22;59861;50.268;8.648;2022-12-07T02:08:48;16.10;56.30
71994;DHT22;59861;50.268;8.648;2022-12-07T02:11:15;16.10;56.30
71994;DHT22;59861;50.268;8.648;2022-12-07T02:13:43;16.10;56.20
71994;DHT22;59861;50.268;8.648;2022-12-07T02:26:48;16.20;56.00
71994;DHT22;59861;50.268;8.648;2022-12-07T02:29:21;16.10;56.00
71994;DHT22;59861;50.268;8.648;2022-12-07T02:32:03;16.10;56.10
71994;DHT22;59861;50.268;8.648;2022-12-07T02:34:46;16.10;56.60
71994;DHT22;59861;50.268;8.648;2022-12-07T02:37:25;16.10;56.00
71994;DHT22;59861;50.268;8.648;2022-12-07T02:39:48;16.10;55.90
71994;DHT22;59861;50.268;8.648;2022-12-07T02:42:15;16.10;55.90
71994;DHT22;59861;50.268;8.648;2022-12-07T02:44:42;16.10;56.00
71994;DHT22;59861;50.268;8.648;2022-12-07T02:47:10;16.00;55.90
71994;DHT22;59861;50.268;8.648;2022-12-07T02:49:39;16.00;55.90
71994;DHT22;59861;50.268;8.648;2022-12-07T02:52:06;16.00;56.00
71994;DHT22;59861;50.268;8.648;2022-12-07T02:54:33;16.00;56.10
71994;DHT22;59861;50.268;8.648;2022-12-07T03:02:18;16.00;56.40
71994;DHT22;59861;50.268;8.648;2022-12-07T03:04:45;16.00;56.50
71994;DHT22;59861;50.268;8.648;2022-12-07T03:07:20;16.00;56.50
71994;DHT22;59861;50.268;8.648;2022-12-07T03:09:53;16.00;56.50
71994;DHT22;59861;50.268;8.648;2022-12-07T03:12:21;16.00;56.50
71994;DHT22;59861;50.268;8.648;2022-12-07T03:14:52;16.00;56.40
71994;DHT22;59861;50.268;8.648;2022-12-07T03:17:27;16.00;56.40
71994;DHT22;59861;50.268;8.648;2022-12-07T03:19:50;16.00;56.40
71994;DHT22;59861;50.268;8.648;2022-12-07T03:22:18;16.00;56.30
71994;DHT22;59861;50.268;8.648;2022-12-07T03:25:04;16.10;56.40
71994;DHT22;59861;50.268;8.648;2022-12-07T03:27:21;16.00;56.30
71994;DHT22;59861;50.268;8.648;2022-12-07T03:29:51;16.10;56.40
71994;DHT22;59861;50.268;8.648;2022-12-07T03:32:20;16.10;56.20
71994;DHT22;59861;50.268;8.648;2022-12-07T03:34:47;16.10;56.20
71994;DHT22;59861;50.268;8.648;2022-12-07T03:37:57;16.10;56.20
71994;DHT22;59861;50.268;8.648;2022-12-07T03:42:31;16.10;56.10
71994;DHT22;59861;50.268;8.648;2022-12-07T03:44:58;16.10;56.10
71994;DHT22;59861;50.268;8.648;2022-12-07T03:47:33;16.10;56.00
71994;DHT22;59861;50.268;8.648;2022-12-07T03:50:07;16.10;56.00
71994;DHT22;59861;50.268;8.648;2022-12-07T03:52:41;16.10;56.00
71994;DHT22;59861;50.268;8.648;2022-12-07T03:55:10;16.00;56.70
71994;DHT22;59861;50.268;8.648;2022-12-07T03:57:37;16.10;56.00
71994;DHT22;59861;50.268;8.648;2022-12-07T04:00:06;16.10;55.90
71994;DHT22;59861;50.268;8.648;2022-12-07T04:02:33;16.00;55.90
71994;DHT22;59861;50.268;8.648;2022-12-07T04:05:00;16.00;55.90
71994;DHT22;59861;50.268;8.648;2022-12-07T04:07:26;16.10;55.90
71994;DHT22;59861;50.268;8.648;2022-12-07T04:09:53;16.10;56.00
71994;DHT22;59861;50.268;8.648;2022-12-07T04:12:22;16.10;56.00
71994;DHT22;59861;50.268;8.648;2022-12-07T04:14:49;16.00;56.00
71994;DHT22;59861;50.268;8.648;2022-12-07T04:17:16;16.00;56.00
71994;DHT22;59861;50.268;8.648;2022-12-07T04:19:43;16.00;56.00
71994;DHT22;59861;50.268;8.648;2022-12-07T04:22:09;16.00;56.00
71994;DHT22;59861;50.268;8.648;2022-12-07T04:24:36;16.00;55.90
71994;DHT22;59861;50.268;8.648;2022-12-07T04:27:03;16.00;55.90
71994;DHT22;59861;50.268;8.648;2022-12-07T04:29:30;16.00;55.90
71994;DHT22;59861;50.268;8.648;2022-12-07T04:31:57;16.10;56.00
71994;DHT22;59861;50.268;8.648;2022-12-07T04:34:23;16.10;55.90
71994;DHT22;59861;50.268;8.648;2022-12-07T04:36:50;16.00;55.90
71994;DHT22;59861;50.268;8.648;2022-12-07T04:39:27;16.00;55.90
71994;DHT22;59861;50.268;8.648;2022-12-07T04:41:54;16.00;55.90
71994;DHT22;59861;50.268;8.648;2022-12-07T04:44:21;16.00;55.90
71994;DHT22;59861;50.268;8.648;2022-12-07T04:46:48;16.10;55.90
71994;DHT22;59861;50.268;8.648;2022-12-07T04:49:15;16.00;55.80
71994;DHT22;59861;50.268;8.648;2022-12-07T04:51:43;16.00;55.90
71994;DHT22;59861;50.268;8.648;2022-12-07T04:54:10;16.10;55.80
71994;DHT22;59861;50.268;8.648;2022-12-07T04:56:37;16.00;56.40
71994;DHT22;59861;50.268;8.648;2022-12-07T04:59:04;16.00;55.70
71994;DHT22;59861;50.268;8.648;2022-12-07T05:01:31;16.00;55.60
71994;DHT22;59861;50.268;8.648;2022-12-07T05:03:58;16.00;55.60
71994;DHT22;59861;50.268;8.648;2022-12-07T05:06:24;16.00;55.60
71994;DHT22;59861;50.268;8.648;2022-12-07T05:08:51;16.10;55.70
71994;DHT22;59861;50.268;8.648;2022-12-07T05:11:18;16.00;55.60
71994;DHT22;59861;50.268;8.648;2022-12-07T05:14:03;16.00;55.80
71994;DHT22;59861;50.268;8.648;2022-12-07T05:16:30;16.00;55.80
71994;DHT22;59861;50.268;8.648;2022-12-07T05:18:57;16.00;55.90
71994;DHT22;59861;50.268;8.648;2022-12-07T05:21:24;16.00;55.90
71994;DHT22;59861;50.268;8.648;2022-12-07T05:23:51;16.00;55.90
71994;DHT22;59861;50.268;8.648;2022-12-07T05:26:18;16.00;55.90
71994;DHT22;59861;50.268;8.648;2022-12-07T05:28:45;16.00;55.90
71994;DHT22;59861;50.268;8.648;2022-12-07T05:31:12;16.00;55.90
71994;DHT22;59861;50.268;8.648;2022-12-07T05:33:38;16.00;56.00
71994;DHT22;59861;50.268;8.648;2022-12-07T05:36:05;16.00;56.00
71994;DHT22;59861;50.268;8.648;2022-12-07T05:38:33;16.00;56.70
71994;DHT22;59861;50.268;8.648;2022-12-07T05:41:03;15.90;56.00
71994;DHT22;59861;50.268;8.648;2022-12-07T05:43:30;15.90;56.10
71994;DHT22;59861;50.268;8.648;2022-12-07T05:45:57;15.90;56.10
71994;DHT22;59861;50.268;8.648;2022-12-07T05:48:24;15.90;56.20
71994;DHT22;59861;50.268;8.648;2022-12-07T05:50:51;15.90;56.10
71994;DHT22;59861;50.268;8.648;2022-12-07T05:53:18;15.90;56.30
71994;DHT22;59861;50.268;8.648;2022-12-07T05:55:45;15.90;56.10
71994;DHT22;59861;50.268;8.648;2022-12-07T05:58:12;15.90;56.10
71994;DHT22;59861;50.268;8.648;2022-12-07T06:00:56;15.90;56.10
71994;DHT22;59861;50.268;8.648;2022-12-07T06:03:23;15.90;56.10
71994;DHT22;59861;50.268;8.648;2022-12-07T06:05:51;15.80;56.40
71994;DHT22;59861;50.268;8.648;2022-12-07T06:08:18;15.80;56.90
71994;DHT22;59861;50.268;8.648;2022-12-07T06:10:46;15.70;57.20
71994;DHT22;59861;50.268;8.648;2022-12-07T06:13:14;15.70;57.20
71994;DHT22;59861;50.268;8.648;2022-12-07T06:15:41;15.70;57.20
71994;DHT22;59861;50.268;8.648;2022-12-07T06:18:08;15.70;57.40
71994;DHT22;59861;50.268;8.648;2022-12-07T06:20:35;15.70;57.60
71994;DHT22;59861;50.268;8.648;2022-12-07T06:23:01;15.60;57.70
71994;DHT22;59861;50.268;8.648;2022-12-07T06:25:28;15.60;57.80
71994;DHT22;59861;50.268;8.648;2022-12-07T06:27:55;15.60;57.80
71994;DHT22;59861;50.268;8.648;2022-12-07T06:30:22;15.60;57.90
71994;DHT22;59861;50.268;8.648;2022-12-07T06:32:49;15.60;57.90
71994;DHT22;59861;50.268;8.648;2022-12-07T06:35:15;15.60;58.00
71994;DHT22;59861;50.268;8.648;2022-12-07T06:37:43;15.60;58.10
71994;DHT22;59861;50.268;8.648;2022-12-07T06:40:10;15.60;57.90
71994;DHT22;59861;50.268;8.648;2022-12-07T06:42:37;15.60;58.00
71994;DHT22;59861;50.268;8.648;2022-12-07T06:45:04;15.60;58.00
71994;DHT22;59861;50.268;8.648;2022-12-07T06:47:31;15.60;58.00
71994;DHT22;59861;50.268;8.648;2022-12-07T06:49:58;15.60;58.10
71994;DHT22;59861;50.268;8.648;2022-12-07T06:52:24;15.60;58.10
71994;DHT22;59861;50.268;8.648;2022-12-07T06:54:51;15.50;58.10
71994;DHT22;59861;50.268;8.648;2022-12-07T06:57:18;15.60;58.10
71994;DHT22;59861;50.268;8.648;2022-12-07T07:02:32;15.60;58.10
71994;DHT22;59861;50.268;8.648;2022-12-07T07:04:58;15.60;58.20
71994;DHT22;59861;50.268;8.648;2022-12-07T07:07:25;15.60;58.10
71994;DHT22;59861;50.268;8.648;2022-12-07T07:09:52;15.60;58.10
71994;DHT22;59861;50.268;8.648;2022-12-07T07:12:19;15.60;58.10
71994;DHT22;59861;50.268;8.648;2022-12-07T07:14:46;15.60;58.10
71994;DHT22;59861;50.268;8.648;2022-12-07T07:17:12;15.60;58.10
71994;DHT22;59861;50.268;8.648;2022-12-07T07:19:39;15.60;58.10
71994;DHT22;59861;50.268;8.648;2022-12-07T07:22:06;15.60;58.00
71994;DHT22;59861;50.268;8.648;2022-12-07T07:24:33;15.60;58.00
71994;DHT22;59861;50.268;8.648;2022-12-07T07:27:00;15.60;58.00
71994;DHT22;59861;50.268;8.648;2022-12-07T07:29:27;15.60;58.00
71994;DHT22;59861;50.268;8.648;2022-12-07T07:31:53;15.60;58.10
71994;DHT22;59861;50.268;8.648;2022-12-07T07:34:20;15.60;58.00
71994;DHT22;59861;50.268;8.648;2022-12-07T07:36:47;15.60;58.10
71994;DHT22;59861;50.268;8.648;2022-12-07T07:39:14;15.60;58.00
71994;DHT22;59861;50.268;8.648;2022-12-07T07:41:41;15.60;58.10
71994;DHT22;59861;50.268;8.648;2022-12-07T07:44:07;15.60;58.00
71994;DHT22;59861;50.268;8.648;2022-12-07T07:46:34;15.60;58.10
71994;DHT22;59861;50.268;8.648;2022-12-07T07:49:01;15.60;58.10
71994;DHT22;59861;50.268;8.648;2022-12-07T07:51:28;15.50;58.10
71994;DHT22;59861;50.268;8.648;2022-12-07T07:53:54;15.60;58.00
71994;DHT22;59861;50.268;8.648;2022-12-07T07:56:21;15.60;58.10
71994;DHT22;59861;50.268;8.648;2022-12-07T07:58:51;15.60;58.10
71994;DHT22;59861;50.268;8.648;2022-12-07T08:01:16;15.50;58.10
71994;DHT22;59861;50.268;8.648;2022-12-07T08:03:48;15.60;58.10
71994;DHT22;59861;50.268;8.648;2022-12-07T08:06:15;15.50;58.00
71994;DHT22;59861;50.268;8.648;2022-12-07T08:08:42;15.50;58.00
71994;DHT22;59861;50.268;8.648;2022-12-07T08:11:09;15.50;58.10
71994;DHT22;59861;50.268;8.648;2022-12-07T08:13:36;15.60;58.20
71994;DHT22;59861;50.268;8.648;2022-12-07T08:16:09;15.50;58.20
71994;DHT22;59861;50.268;8.648;2022-12-07T08:18:31;15.50;58.10
71994;DHT22;59861;50.268;8.648;2022-12-07T08:21:00;15.50;58.10
71994;DHT22;59861;50.268;8.648;2022-12-07T08:23:27;15.50;58.10
71994;DHT22;59861;50.268;8.648;2022-12-07T08:25:53;15.50;58.10
71994;DHT22;59861;50.268;8.648;2022-12-07T08:28:20;15.50;58.10
71994;DHT22;59861;50.268;8.648;2022-12-07T08:30:47;15.50;58.10
71994;DHT22;59861;50.268;8.648;2022-12-07T08:33:14;15.50;58.10
71994;DHT22;59861;50.268;8.648;2022-12-07T08:35:41;15.50;58.10
71994;DHT22;59861;50.268;8.648;2022-12-07T08:38:08;15.60;58.10
71994;DHT22;59861;50.268;8.648;2022-12-07T08:40:35;15.60;58.20
71994;DHT22;59861;50.268;8.648;2022-12-07T08:43:02;15.60;58.10
71994;DHT22;59861;50.268;8.648;2022-12-07T08:45:28;15.60;58.10
71994;DHT22;59861;50.268;8.648;2022-12-07T08:47:58;15.50;58.10
71994;DHT22;59861;50.268;8.648;2022-12-07T08:50:25;15.50;58.10
71994;DHT22;59861;50.268;8.648;2022-12-07T08:52:53;15.50;58.10
71994;DHT22;59861;50.268;8.648;2022-12-07T08:55:21;15.50;58.10
71994;DHT22;59861;50.268;8.648;2022-12-07T08:57:48;15.60;58.10
71994;DHT22;59861;50.268;8.648;2022-12-07T09:00:15;15.60;58.10
71994;DHT22;59861;50.268;8.648;2022-12-07T09:02:44;15.50;58.10
71994;DHT22;59861;50.268;8.648;2022-12-07T09:05:11;15.50;58.20
71994;DHT22;59861;50.268;8.648;2022-12-07T09:07:40;15.50;58.10
71994;DHT22;59861;50.268;8.648;2022-12-07T09:10:07;15.50;58.10
71994;DHT22;59861;50.268;8.648;2022-12-07T09:12:34;15.50;58.10
71994;DHT22;59861;50.268;8.648;2022-12-07T09:15:01;15.50;58.10
71994;DHT22;59861;50.268;8.648;2022-12-07T09:17:31;15.50;58.00
71994;DHT22;59861;50.268;8.648;2022-12-07T09:19:56;15.60;58.00
71994;DHT22;59861;50.268;8.648;2022-12-07T09:22:23;15.50;58.00
71994;DHT22;59861;50.268;8.648;2022-12-07T09:24:50;15.50;58.00
71994;DHT22;59861;50.268;8.648;2022-12-07T09:27:17;15.50;58.00
71994;DHT22;59861;50.268;8.648;2022-12-07T09:29:44;15.60;58.00
71994;DHT22;59861;50.268;8.648;2022-12-07T09:32:11;15.60;58.00
71994;DHT22;59861;50.268;8.648;2022-12-07T09:34:38;15.60;58.00
71994;DHT22;59861;50.268;8.648;2022-12-07T09:37:05;15.60;58.10
71994;DHT22;59861;50.268;8.648;2022-12-07T09:39:32;15.60;58.10
71994;DHT22;59861;50.268;8.648;2022-12-07T09:41:59;15.60;58.10
71994;DHT22;59861;50.268;8.648;2022-12-07T09:44:27;15.60;58.00
71994;DHT22;59861;50.268;8.648;2022-12-07T09:46:54;15.60;57.90
71994;DHT22;59861;50.268;8.648;2022-12-07T09:49:23;15.70;57.90
71994;DHT22;59861;50.268;8.648;2022-12-07T09:52:01;15.70;57.90
71994;DHT22;59861;50.268;8.648;2022-12-07T09:54:25;15.70;57.90
71994;DHT22;59861;50.268;8.648;2022-12-07T09:56:52;15.70;57.90
71994;DHT22;59861;50.268;8.648;2022-12-07T09:59:19;15.70;57.90
71994;DHT22;59861;50.268;8.648;2022-12-07T10:01:49;15.80;58.00
71994;DHT22;59861;50.268;8.648;2022-12-07T10:04:24;15.80;58.00
71994;DHT22;59861;50.268;8.648;2022-12-07T10:06:51;15.80;58.00
71994;DHT22;59861;50.268;8.648;2022-12-07T10:09:19;15.80;58.00
71994;DHT22;59861;50.268;8.648;2022-12-07T10:12:00;15.80;58.20
71994;DHT22;59861;50.268;8.648;2022-12-07T10:14:27;15.80;58.30
71994;DHT22;59861;50.268;8.648;2022-12-07T10:16:55;15.80;58.30
71994;DHT22;59861;50.268;8.648;2022-12-07T10:19:23;15.90;58.60
71994;DHT22;59861;50.268;8.648;2022-12-07T10:22:04;15.80;58.30
71994;DHT22;59861;50.268;8.648;2022-12-07T10:24:27;15.80;58.40
71994;DHT22;59861;50.268;8.648;2022-12-07T10:26:55;15.80;58.30
71994;DHT22;59861;50.268;8.648;2022-12-07T10:29:23;15.80;58.30
71994;DHT22;59861;50.268;8.648;2022-12-07T10:32:00;15.80;58.30
71994;DHT22;59861;50.268;8.648;2022-12-07T10:34:29;15.80;58.30
71994;DHT22;59861;50.268;8.648;2022-12-07T10:37:16;15.80;58.50
71994;DHT22;59861;50.268;8.648;2022-12-07T10:39:47;15.80;58.40
71994;DHT22;59861;50.268;8.648;2022-12-07T10:42:21;15.90;58.00
71994;DHT22;59861;50.268;8.648;2022-12-07T10:44:49;15.90;58.60
71994;DHT22;59861;50.268;8.648;2022-12-07T10:47:28;15.90;58.50
71994;DHT22;59861;50.268;8.648;2022-12-07T10:57:47;16.00;58.40
71994;DHT22;59861;50.268;8.648;2022-12-07T11:00:15;16.00;58.40
71994;DHT22;59861;50.268;8.648;2022-12-07T11:02:50;16.00;58.30
71994;DHT22;59861;50.268;8.648;2022-12-07T11:05:20;16.10;58.30
71994;DHT22;59861;50.268;8.648;2022-12-07T11:07:49;16.00;58.10
71994;DHT22;59861;50.268;8.648;2022-12-07T11:20:45;16.10;58.10
71994;DHT22;59861;50.268;8.648;2022-12-07T11:23:21;16.10;58.10
71994;DHT22;59861;50.268;8.648;2022-12-07T11:31:18;16.10;58.10
71994;DHT22;59861;50.268;8.648;2022-12-07T11:34:09;16.10;58.20
71994;DHT22;59861;50.268;8.648;2022-12-07T11:39:00;16.00;58.20
71994;DHT22;59861;50.268;8.648;2022-12-07T11:41:31;16.00;58.30
71994;DHT22;59861;50.268;8.648;2022-12-07T11:44:00;16.10;58.30
71994;DHT22;59861;50.268;8.648;2022-12-07T11:46:36;16.00;58.70
71994;DHT22;59861;50.268;8.648;2022-12-07T11:49:07;16.00;58.40
71994;DHT22;59861;50.268;8.648;2022-12-07T11:51:28;16.00;58.40
71994;DHT22;59861;50.268;8.648;2022-12-07T11:53:59;16.00;58.40
71994;DHT22;59861;50.268;8.648;2022-12-07T11:56:27;16.10;58.40
71994;DHT22;59861;50.268;8.648;2022-12-07T11:58:55;16.10;58.50
71994;DHT22;59861;50.268;8.648;2022-12-07T12:01:29;16.10;58.40
71994;DHT22;59861;50.268;8.648;2022-12-07T12:03:56;16.10;58.40
71994;DHT22;59861;50.268;8.648;2022-12-07T12:06:22;16.00;58.40
71994;DHT22;59861;50.268;8.648;2022-12-07T12:08:57;16.00;58.50
71994;DHT22;59861;50.268;8.648;2022-12-07T12:19:11;16.10;58.20
71994;DHT22;59861;50.268;8.648;2022-12-07T12:21:34;16.10;58.10
71994;DHT22;59861;50.268;8.648;2022-12-07T12:24:03;16.10;58.00
71994;DHT22;59861;50.268;8.648;2022-12-07T12:26:31;16.00;58.00
71994;DHT22;59861;50.268;8.648;2022-12-07T12:29:05;16.00;58.00
71994;DHT22;59861;50.268;8.648;2022-12-07T12:31:36;16.00;58.10
71994;DHT22;59861;50.268;8.648;2022-12-07T12:39:17;15.90;58.00
71994;DHT22;59861;50.268;8.648;2022-12-07T12:51:58;16.00;58.60
71994;DHT22;59861;50.268;8.648;2022-12-07T12:54:34;16.00;57.90
71994;DHT22;59861;50.268;8.648;2022-12-07T12:59:42;16.10;57.80
71994;DHT22;59861;50.268;8.648;2022-12-07T13:02:15;16.10;58.60
71994;DHT22;59861;50.268;8.648;2022-12-07T13:04:39;16.10;57.80
71994;DHT22;59861;50.268;8.648;2022-12-07T13:07:10;16.00;58.00
71994;DHT22;59861;50.268;8.648;2022-12-07T13:09:34;16.10;58.10
71994;DHT22;59861;50.268;8.648;2022-12-07T13:12:04;16.10;58.10
71994;DHT22;59861;50.268;8.648;2022-12-07T13:17:09;16.20;58.00
71994;DHT22;59861;50.268;8.648;2022-12-07T13:25:04;16.20;58.20
71994;DHT22;59861;50.268;8.648;2022-12-07T13:27:30;16.20;58.30
71994;DHT22;59861;50.268;8.648;2022-12-07T13:29:57;16.20;58.40
71994;DHT22;59861;50.268;8.648;2022-12-07T13:32:25;16.10;58.40
71994;DHT22;59861;50.268;8.648;2022-12-07T13:34:53;16.10;58.40
71994;DHT22;59861;50.268;8.648;2022-12-07T13:37:24;16.10;58.50
71994;DHT22;59861;50.268;8.648;2022-12-07T13:39:52;16.10;58.50
71994;DHT22;59861;50.268;8.648;2022-12-07T13:44:54;16.10;58.70
71994;DHT22;59861;50.268;8.648;2022-12-07T13:49:54;16.10;58.70
71994;DHT22;59861;50.268;8.648;2022-12-07T13:52:29;16.10;58.80
71994;DHT22;59861;50.268;8.648;2022-12-07T13:54:59;16.10;58.20
71994;DHT22;59861;50.268;8.648;2022-12-07T13:57:30;16.10;58.80
71994;DHT22;59861;50.268;8.648;2022-12-07T14:00:00;16.10;58.80
71994;DHT22;59861;50.268;8.648;2022-12-07T14:05:22;16.20;58.70
71994;DHT22;59861;50.268;8.648;2022-12-07T14:07:53;16.10;58.90
71994;DHT22;59861;50.268;8.648;2022-12-07T14:12:59;16.10;58.90
71994;DHT22;59861;50.268;8.648;2022-12-07T14:15:33;16.10;58.90
71994;DHT22;59861;50.268;8.648;2022-12-07T14:18:02;16.20;58.90
71994;DHT22;59861;50.268;8.648;2022-12-07T14:20:39;16.10;58.60
71994;DHT22;59861;50.268;8.648;2022-12-07T14:23:21;16.10;58.50
71994;DHT22;59861;50.268;8.648;2022-12-07T14:25:47;16.00;58.40
71994;DHT22;59861;50.268;8.648;2022-12-07T14:28:09;16.00;58.40
71994;DHT22;59861;50.268;8.648;2022-12-07T14:30:34;16.00;58.40
71994;DHT22;59861;50.268;8.648;2022-12-07T14:33:02;16.00;58.30
71994;DHT22;59861;50.268;8.648;2022-12-07T14:35:29;16.00;58.30
71994;DHT22;59861;50.268;8.648;2022-12-07T14:37:56;16.00;58.30
71994;DHT22;59861;50.268;8.648;2022-12-07T14:40:24;16.00;58.30
71994;DHT22;59861;50.268;8.648;2022-12-07T14:45:27;16.10;58.40
71994;DHT22;59861;50.268;8.648;2022-12-07T14:47:54;16.10;58.60
71994;DHT22;59861;50.268;8.648;2022-12-07T14:50:21;16.10;58.60
71994;DHT22;59861;50.268;8.648;2022-12-07T14:52:49;16.10;58.70
71994;DHT22;59861;50.268;8.648;2022-12-07T14:55:26;16.10;58.70
71994;DHT22;59861;50.268;8.648;2022-12-07T14:57:44;16.10;58.60
71994;DHT22;59861;50.268;8.648;2022-12-07T15:00:15;16.20;58.70
71994;DHT22;59861;50.268;8.648;2022-12-07T15:02:48;16.20;58.70
71994;DHT22;59861;50.268;8.648;2022-12-07T15:05:11;16.20;58.70
71994;DHT22;59861;50.268;8.648;2022-12-07T15:07:39;16.20;58.60
71994;DHT22;59861;50.268;8.648;2022-12-07T15:10:06;16.20;58.50
71994;DHT22;59861;50.268;8.648;2022-12-07T15:12:33;16.20;59.20
71994;DHT22;59861;50.268;8.648;2022-12-07T15:15:00;16.20;58.50
71994;DHT22;59861;50.268;8.648;2022-12-07T15:17:27;16.20;58.60
71994;DHT22;59861;50.268;8.648;2022-12-07T15:19:54;16.20;58.60
71994;DHT22;59861;50.268;8.648;2022-12-07T15:22:21;16.20;58.50
71994;DHT22;59861;50.268;8.648;2022-12-07T15:24:47;16.20;58.50
71994;DHT22;59861;50.268;8.648;2022-12-07T15:27:14;16.20;58.50
71994;DHT22;59861;50.268;8.648;2022-12-07T15:29:41;16.20;58.60
71994;DHT22;59861;50.268;8.648;2022-12-07T15:32:08;16.20;58.70
71994;DHT22;59861;50.268;8.648;2022-12-07T15:34:35;16.10;58.80
71994;DHT22;59861;50.268;8.648;2022-12-07T15:37:01;16.20;58.70
71994;DHT22;59861;50.268;8.648;2022-12-07T15:39:28;16.20;59.00
71994;DHT22;59861;50.268;8.648;2022-12-07T15:41:55;16.20;59.00
71994;DHT22;59861;50.268;8.648;2022-12-07T15:44:22;16.10;58.80
71994;DHT22;59861;50.268;8.648;2022-12-07T15:47:07;16.20;59.00
71994;DHT22;59861;50.268;8.648;2022-12-07T15:49:33;16.20;59.00
71994;DHT22;59861;50.268;8.648;2022-12-07T15:52:00;16.20;59.00
71994;DHT22;59861;50.268;8.648;2022-12-07T15:54:27;16.20;59.00
71994;DHT22;59861;50.268;8.648;2022-12-07T15:56:55;16.20;59.10
71994;DHT22;59861;50.268;8.648;2022-12-07T15:59:22;16.20;59.30
71994;DHT22;59861;50.268;8.648;2022-12-07T16:01:49;16.20;59.20
71994;DHT22;59861;50.268;8.648;2022-12-07T16:04:16;16.20;59.30
71994;DHT22;59861;50.268;8.648;2022-12-07T16:06:43;16.20;59.40
71994;DHT22;59861;50.268;8.648;2022-12-07T16:09:10;16.20;59.30
71994;DHT22;59861;50.268;8.648;2022-12-07T16:11:37;16.20;59.30
71994;DHT22;59861;50.268;8.648;2022-12-07T16:14:04;16.20;59.20
71994;DHT22;59861;50.268;8.648;2022-12-07T16:16:31;16.20;59.40
71994;DHT22;59861;50.268;8.648;2022-12-07T16:18:58;16.20;59.40
71994;DHT22;59861;50.268;8.648;2022-12-07T16:21:24;16.20;59.30
71994;DHT22;59861;50.268;8.648;2022-12-07T16:23:51;16.20;59.30
71994;DHT22;59861;50.268;8.648;2022-12-07T16:26:19;16.20;59.20
71994;DHT22;59861;50.268;8.648;2022-12-07T16:28:51;16.10;59.30
71994;DHT22;59861;50.268;8.648;2022-12-07T16:31:15;16.20;59.50
71994;DHT22;59861;50.268;8.648;2022-12-07T16:33:43;16.20;59.50
71994;DHT22;59861;50.268;8.648;2022-12-07T16:36:11;16.20;59.60
71994;DHT22;59861;50.268;8.648;2022-12-07T16:38:39;16.20;59.60
71994;DHT22;59861;50.268;8.648;2022-12-07T16:41:06;16.20;59.50
71994;DHT22;59861;50.268;8.648;2022-12-07T16:43:33;16.30;59.60
71994;DHT22;59861;50.268;8.648;2022-12-07T16:46:00;16.30;59.50
71994;DHT22;59861;50.268;8.648;2022-12-07T16:48:27;16.30;59.40
71994;DHT22;59861;50.268;8.648;2022-12-07T16:50:53;16.30;59.40
71994;DHT22;59861;50.268;8.648;2022-12-07T16:53:21;16.40;59.40
71994;DHT22;59861;50.268;8.648;2022-12-07T16:55:48;16.40;59.30
71994;DHT22;59861;50.268;8.648;2022-12-07T16:58:15;16.40;59.20
71994;DHT22;59861;50.268;8.648;2022-12-07T17:00:43;16.40;59.20
71994;DHT22;59861;50.268;8.648;2022-12-07T17:03:10;16.40;59.20
71994;DHT22;59861;50.268;8.648;2022-12-07T17:05:41;16.40;59.20
71994;DHT22;59861;50.268;8.648;2022-12-07T17:08:08;16.40;59.30
71994;DHT22;59861;50.268;8.648;2022-12-07T17:10:36;16.40;59.20